createdAt,value
2023-01-30T00:01:23.342Z,14.30
2023-01-30T00:03:51.948Z,14.20
2023-01-30T00:06:21.025Z,14.40
2023-01-30T00:08:49.473Z,13.00
2023-01-30T00:11:19.832Z,14.90
2023-01-30T00:13:49.737Z,15.10
2023-01-30T00:16:18.871Z,13.80
2023-01-30T00:18:47.403Z,13.30
2023-01-30T00:21:16.421Z,13.40
2023-01-30T00:23:45.504Z,15.60
2023-01-30T00:26:14.306Z,14.60
2023-01-30T00:28:44.435Z,11.90
2023-01-30T00:31:12.814Z,13.50
2023-01-30T00:33:41.196Z,13.30
2023-01-30T00:36:11.017Z,14.20
2023-01-30T00:38:39.589Z,14.30
2023-01-30T00:41:10.080Z,13.10
2023-01-30T00:43:57.204Z,14.00
2023-01-30T00:46:44.684Z,12.80
2023-01-30T00:49:14.065Z,13.50
2023-01-30T00:51:42.732Z,12.60
2023-01-30T00:54:11.174Z,12.20
2023-01-30T00:56:40.447Z,12.60
2023-01-30T00:59:08.791Z,12.40
2023-01-30T01:01:37.390Z,11.90
2023-01-30T01:04:09.670Z,13.40
2023-01-30T01:06:39.021Z,11.40
2023-01-30T01:09:07.777Z,13.40
2023-01-30T01:11:36.489Z,12.90
2023-01-30T01:14:06.530Z,11.30
2023-01-30T01:16:37.011Z,12.10
2023-01-30T01:19:06.366Z,12.00
2023-01-30T01:21:35.226Z,12.10
2023-01-30T01:24:05.285Z,11.40
2023-01-30T01:26:35.684Z,11.50
2023-01-30T01:29:06.248Z,11.00
2023-01-30T01:31:35.058Z,11.70
2023-01-30T01:34:03.663Z,11.90
2023-01-30T01:36:52.855Z,11.60
2023-01-30T01:39:21.713Z,11.10
2023-01-30T01:41:52.214Z,11.80
2023-01-30T01:44:20.784Z,10.90
2023-01-30T01:46:55.588Z,9.90
2023-01-30T01:49:28.331Z,11.50
2023-01-30T01:54:33.966Z,10.10
2023-01-30T01:57:07.475Z,11.10
2023-01-30T01:59:42.847Z,10.90
2023-01-30T02:02:14.288Z,11.30
2023-01-30T02:05:01.888Z,9.40
2023-01-30T02:07:36.853Z,9.30
2023-01-30T02:10:10.611Z,10.30
2023-01-30T02:12:40.994Z,9.00
2023-01-30T02:15:11.402Z,9.60
2023-01-30T02:17:42.606Z,10.10
2023-01-30T02:20:21.221Z,10.00
2023-01-30T02:23:24.579Z,10.70
2023-01-30T02:26:11.766Z,10.60
2023-01-30T02:29:10.146Z,10.80
2023-01-30T02:31:43.174Z,9.60
2023-01-30T02:34:39.216Z,10.40
2023-01-30T02:37:23.278Z,8.90
2023-01-30T02:40:05.589Z,9.40
2023-01-30T02:42:43.061Z,10.40
2023-01-30T02:45:21.274Z,10.80
2023-01-30T02:47:56.556Z,11.00
2023-01-30T02:50:29.248Z,11.00
2023-01-30T02:52:58.245Z,10.20
2023-01-30T02:55:28.966Z,10.70
2023-01-30T02:57:58.121Z,10.80
2023-01-30T03:00:40.286Z,9.70
2023-01-30T03:03:34.548Z,10.20
2023-01-30T03:06:26.142Z,11.00
2023-01-30T03:09:07.260Z,11.20
2023-01-30T03:11:42.578Z,8.40
2023-01-30T03:14:21.628Z,10.00
2023-01-30T03:16:53.945Z,10.60
2023-01-30T03:19:24.077Z,10.40
2023-01-30T03:21:52.910Z,10.10
2023-01-30T03:24:23.675Z,11.20
2023-01-30T03:26:58.128Z,10.60
2023-01-30T03:29:27.086Z,11.00
2023-01-30T03:31:55.526Z,10.70
2023-01-30T03:34:23.946Z,11.50
2023-01-30T03:36:53.690Z,10.70
2023-01-30T03:39:24.930Z,11.30
2023-01-30T03:41:54.296Z,10.10
2023-01-30T03:44:22.898Z,9.60
2023-01-30T03:46:51.388Z,11.60
2023-01-30T03:49:20.889Z,9.60
2023-01-30T03:51:49.711Z,10.40
2023-01-30T03:54:18.177Z,11.60
2023-01-30T03:56:46.851Z,10.40
2023-01-30T03:59:15.260Z,11.90
2023-01-30T04:01:49.903Z,11.50
2023-01-30T04:04:18.904Z,11.30
2023-01-30T04:06:47.330Z,11.60
2023-01-30T04:09:15.699Z,12.20
2023-01-30T04:11:48.862Z,10.90
2023-01-30T04:14:17.912Z,12.10
2023-01-30T04:17:05.914Z,11.90
2023-01-30T04:19:47.231Z,11.80
2023-01-30T04:22:16.480Z,10.70
2023-01-30T04:24:47.268Z,10.90
2023-01-30T04:27:17.916Z,11.80
2023-01-30T04:30:03.305Z,13.00
2023-01-30T04:32:32.251Z,12.40
2023-01-30T04:35:01.051Z,12.00
2023-01-30T04:37:29.662Z,12.80
2023-01-30T04:39:58.576Z,13.50
2023-01-30T04:42:28.410Z,13.00
2023-01-30T04:45:20.493Z,11.60
2023-01-30T04:47:49.426Z,12.30
2023-01-30T04:50:18.680Z,12.80
2023-01-30T04:52:47.861Z,12.50
2023-01-30T04:55:16.411Z,13.10
2023-01-30T04:57:45.235Z,13.80
2023-01-30T05:00:15.512Z,13.50
2023-01-30T05:02:50.147Z,13.50
2023-01-30T05:05:19.106Z,13.20
2023-01-30T05:07:48.022Z,12.70
2023-01-30T05:10:17.890Z,13.40
2023-01-30T05:12:46.667Z,13.10
2023-01-30T05:15:15.491Z,12.80
2023-01-30T05:17:44.839Z,13.40
2023-01-30T05:20:15.052Z,14.50
2023-01-30T05:22:43.884Z,13.20
2023-01-30T05:25:12.711Z,12.80
2023-01-30T05:27:41.994Z,15.20
2023-01-30T05:30:12.642Z,14.20
2023-01-30T05:32:41.888Z,14.20
2023-01-30T05:35:10.567Z,13.60
2023-01-30T05:37:40.189Z,14.20
2023-01-30T05:40:11.592Z,13.00
2023-01-30T05:42:39.895Z,16.10
2023-01-30T05:45:10.944Z,15.20
2023-01-30T05:47:39.406Z,15.20
2023-01-30T05:50:14.895Z,14.20
2023-01-30T05:52:45.439Z,14.80
2023-01-30T05:55:14.427Z,15.90
2023-01-30T05:57:42.939Z,14.30
2023-01-30T06:00:14.293Z,15.00
2023-01-30T06:02:43.001Z,13.60
2023-01-30T06:05:12.828Z,14.60
2023-01-30T06:07:43.476Z,14.50
2023-01-30T06:10:12.559Z,14.60
2023-01-30T06:12:40.824Z,14.40
2023-01-30T06:15:12.244Z,14.50
2023-01-30T06:17:43.500Z,14.60
2023-01-30T06:20:14.044Z,13.20
2023-01-30T06:22:42.378Z,13.80
2023-01-30T06:25:12.057Z,13.80
2023-01-30T06:27:42.595Z,14.80
2023-01-30T06:30:13.361Z,13.00
2023-01-30T06:32:42.066Z,14.10
2023-01-30T06:35:10.616Z,15.20
2023-01-30T06:37:39.549Z,12.70
2023-01-30T06:40:11.035Z,14.60
2023-01-30T06:42:43.297Z,14.50
2023-01-30T06:45:12.619Z,14.50
2023-01-30T06:47:52.180Z,13.30
2023-01-30T06:50:25.211Z,14.40
2023-01-30T06:55:26.171Z,14.60
2023-01-30T06:58:04.141Z,14.40
2023-01-30T07:00:33.319Z,13.80
2023-01-30T07:03:03.742Z,14.90
2023-01-30T07:05:33.088Z,16.50
2023-01-30T07:08:02.135Z,13.40
2023-01-30T07:10:31.931Z,16.00
2023-01-30T07:13:01.463Z,15.00
2023-01-30T07:15:30.160Z,13.90
2023-01-30T07:17:59.535Z,14.80
2023-01-30T07:20:29.491Z,15.60
2023-01-30T07:22:58.257Z,14.20
2023-01-30T07:25:28.305Z,15.30
2023-01-30T07:27:59.033Z,16.30
2023-01-30T07:30:29.881Z,17.40
2023-01-30T07:32:59.760Z,16.40
2023-01-30T07:35:31.800Z,15.10
2023-01-30T07:38:00.705Z,15.50
2023-01-30T07:40:29.595Z,15.80
2023-01-30T07:42:59.820Z,17.50
2023-01-30T07:45:31.351Z,15.80
2023-01-30T07:47:59.686Z,15.60
2023-01-30T07:50:28.328Z,13.70
2023-01-30T07:52:57.045Z,14.00
2023-01-30T07:55:26.523Z,16.30
2023-01-30T07:57:55.506Z,15.30
2023-01-30T08:00:25.445Z,16.10
2023-01-30T08:02:54.711Z,14.00
2023-01-30T08:05:23.710Z,14.60
2023-01-30T08:07:53.035Z,13.80
2023-01-30T08:10:21.913Z,14.30
2023-01-30T08:12:50.954Z,13.40
2023-01-30T08:15:21.841Z,14.80
2023-01-30T08:17:59.030Z,13.20
2023-01-30T08:20:28.499Z,13.50
2023-01-30T08:22:59.212Z,14.10
2023-01-30T08:25:28.455Z,13.90
2023-01-30T08:28:02.519Z,13.00
2023-01-30T08:30:31.597Z,12.40
2023-01-30T08:33:00.719Z,12.30
2023-01-30T08:35:29.721Z,12.90
2023-01-30T08:37:59.169Z,12.30
2023-01-30T08:40:27.711Z,13.20
2023-01-30T08:42:56.560Z,12.20
2023-01-30T08:45:25.764Z,11.00
2023-01-30T08:47:57.507Z,12.60
2023-01-30T08:50:26.274Z,12.80
2023-01-30T08:52:55.086Z,12.00
2023-01-30T08:55:23.632Z,11.30
2023-01-30T08:57:55.603Z,13.30
2023-01-30T09:00:24.709Z,13.00
2023-01-30T09:02:54.373Z,12.00
2023-01-30T09:05:23.508Z,12.10
2023-01-30T09:07:52.230Z,12.00
2023-01-30T09:10:21.701Z,13.20
2023-01-30T09:12:50.785Z,12.00
2023-01-30T09:15:19.651Z,13.10
2023-01-30T09:17:48.202Z,13.90
2023-01-30T09:20:20.252Z,13.30
2023-01-30T09:22:49.049Z,13.50
2023-01-30T09:25:18.059Z,12.00
2023-01-30T09:27:49.879Z,13.00
2023-01-30T09:30:20.124Z,13.20
2023-01-30T09:32:49.209Z,12.20
2023-01-30T09:35:18.217Z,12.50
2023-01-30T09:37:49.888Z,14.20
2023-01-30T09:40:22.444Z,11.80
2023-01-30T09:43:13.199Z,14.30
2023-01-30T09:45:52.922Z,11.70
2023-01-30T09:48:29.844Z,14.60
2023-01-30T09:51:15.979Z,11.80
2023-01-30T09:54:01.123Z,11.70
2023-01-30T09:56:30.441Z,13.50
2023-01-30T09:59:01.612Z,14.20
2023-01-30T10:01:40.415Z,13.40
2023-01-30T10:04:15.869Z,13.00
2023-01-30T10:06:57.391Z,13.70
2023-01-30T10:09:39.517Z,12.80
2023-01-30T10:12:28.460Z,12.50
2023-01-30T10:15:16.134Z,13.70
2023-01-30T10:17:57.845Z,12.50
2023-01-30T10:20:40.776Z,13.50
2023-01-30T10:23:32.563Z,12.60
2023-01-30T10:26:09.193Z,11.80
2023-01-30T10:28:44.287Z,11.70
2023-01-30T10:31:16.343Z,14.40
2023-01-30T10:33:54.714Z,12.20
2023-01-30T10:36:29.019Z,11.80
2023-01-30T10:39:00.992Z,10.50
2023-01-30T10:41:34.521Z,11.60
2023-01-30T10:44:08.011Z,11.90
2023-01-30T10:46:56.728Z,12.20
2023-01-30T10:49:36.521Z,10.60
2023-01-30T10:52:19.671Z,10.50
2023-01-30T10:54:59.623Z,11.80
2023-01-30T10:57:43.317Z,12.00
2023-01-30T11:00:23.122Z,11.90
2023-01-30T11:03:05.462Z,10.60
2023-01-30T11:05:41.785Z,10.80
2023-01-30T11:08:20.412Z,9.50
2023-01-30T11:10:49.885Z,10.10
2023-01-30T11:13:21.150Z,9.60
2023-01-30T11:15:52.536Z,11.10
2023-01-30T11:19:14.008Z,10.30
2023-01-30T11:21:19.391Z,10.90
2023-01-30T11:23:48.736Z,12.10
2023-01-30T11:26:22.653Z,10.10
2023-01-30T11:28:51.980Z,10.70
2023-01-30T11:31:39.977Z,9.90
2023-01-30T11:34:16.937Z,10.70
2023-01-30T11:36:46.604Z,9.90
2023-01-30T11:39:27.937Z,10.60
2023-01-30T11:42:03.978Z,9.80
2023-01-30T11:44:35.200Z,9.00
2023-01-30T11:47:08.030Z,9.70
2023-01-30T11:49:52.882Z,8.40
2023-01-30T11:52:36.309Z,10.70
2023-01-30T11:55:12.259Z,8.50
2023-01-30T11:57:43.433Z,8.90
2023-01-30T12:00:20.520Z,10.20
2023-01-30T12:02:52.544Z,9.90
2023-01-30T12:05:28.989Z,8.80
2023-01-30T12:08:13.944Z,9.60
2023-01-30T12:10:43.437Z,8.40
2023-01-30T12:13:18.850Z,8.20
2023-01-30T12:15:53.920Z,7.60
2023-01-30T12:18:29.631Z,8.30
2023-01-30T12:21:01.643Z,8.60
2023-01-30T12:23:40.023Z,8.10
2023-01-30T12:26:14.849Z,7.20
2023-01-30T12:28:50.994Z,7.00
2023-01-30T12:31:25.407Z,7.80
2023-01-30T12:33:54.707Z,6.60
2023-01-30T12:36:35.537Z,7.50
2023-01-30T12:39:22.963Z,7.70
2023-01-30T12:44:56.066Z,7.60
2023-01-30T12:47:50.902Z,6.00
2023-01-30T12:50:28.790Z,6.00
2023-01-30T12:53:18.617Z,6.60
2023-01-30T12:55:56.420Z,4.80
2023-01-30T12:58:28.622Z,6.50
2023-01-30T13:01:13.318Z,5.60
2023-01-30T13:03:45.866Z,6.10
2023-01-30T13:06:40.628Z,5.80
2023-01-30T13:09:27.321Z,4.90
2023-01-30T13:12:04.857Z,5.20
2023-01-30T13:14:38.122Z,4.80
2023-01-30T13:17:19.938Z,5.80
2023-01-30T13:19:57.870Z,5.80
2023-01-30T13:22:34.936Z,4.70
2023-01-30T13:25:17.221Z,4.70
2023-01-30T13:27:53.395Z,4.90
2023-01-30T13:30:27.020Z,3.80
2023-01-30T13:33:00.774Z,4.50
2023-01-30T13:35:35.358Z,5.50
2023-01-30T13:38:09.351Z,4.40
2023-01-30T13:40:42.227Z,5.20
2023-01-30T13:43:16.640Z,4.50
2023-01-30T13:45:48.213Z,5.10
2023-01-30T13:48:32.993Z,4.50
2023-01-30T13:51:16.614Z,5.10
2023-01-30T13:53:54.299Z,4.40
2023-01-30T13:56:41.810Z,5.60
2023-01-30T13:59:22.298Z,4.50
2023-01-30T14:02:18.005Z,4.60
2023-01-30T14:04:53.888Z,5.80
2023-01-30T14:07:27.642Z,5.00
2023-01-30T14:10:15.168Z,3.90
2023-01-30T14:12:46.036Z,4.20
2023-01-30T14:15:28.109Z,5.10
2023-01-30T14:18:06.415Z,5.30
2023-01-30T14:20:37.308Z,4.70
2023-01-30T14:23:20.028Z,4.70
2023-01-30T14:25:50.545Z,5.20
2023-01-30T14:28:51.581Z,4.70
2023-01-30T14:31:53.679Z,5.70
2023-01-30T14:35:10.268Z,5.10
2023-01-30T14:38:16.138Z,5.10
2023-01-30T14:40:48.845Z,5.40
2023-01-30T14:43:53.028Z,4.90
2023-01-30T14:46:56.008Z,6.70
2023-01-30T14:49:30.523Z,5.80
2023-01-30T14:52:00.237Z,5.70
2023-01-30T14:54:43.508Z,5.70
2023-01-30T14:57:23.508Z,5.70
2023-01-30T15:00:14.307Z,5.00
2023-01-30T15:02:51.205Z,5.40
2023-01-30T15:05:26.899Z,5.20
2023-01-30T15:08:03.300Z,5.60
2023-01-30T15:11:01.930Z,6.70
2023-01-30T15:14:00.609Z,5.20
2023-01-30T15:16:58.634Z,5.00
2023-01-30T15:19:48.634Z,5.20
2023-01-30T15:22:26.565Z,4.60
2023-01-30T15:25:22.794Z,4.60
2023-01-30T15:28:01.689Z,4.70
2023-01-30T15:30:56.424Z,4.00
2023-01-30T15:33:31.565Z,4.50
2023-01-30T15:36:16.957Z,3.80
2023-01-30T15:38:45.463Z,3.70
2023-01-30T15:41:13.830Z,3.70
2023-01-30T15:43:55.432Z,2.80
2023-01-30T15:46:33.299Z,3.20
2023-01-30T15:49:17.555Z,2.90
2023-01-30T15:51:46.235Z,2.80
2023-01-30T15:54:18.956Z,2.80
2023-01-30T15:59:29.675Z,3.40
2023-01-30T16:02:07.739Z,3.50
2023-01-30T16:04:36.268Z,4.20
2023-01-30T16:07:15.648Z,3.60
2023-01-30T16:10:06.725Z,3.20
2023-01-30T16:12:39.960Z,3.10
2023-01-30T16:15:19.644Z,3.30
2023-01-30T16:17:59.304Z,3.50
2023-01-30T16:20:28.913Z,3.20
2023-01-30T16:22:57.420Z,3.40
2023-01-30T16:25:33.660Z,2.80
2023-01-30T16:28:04.158Z,3.50
2023-01-30T16:30:33.659Z,3.50
2023-01-30T16:33:09.093Z,5.30
2023-01-30T16:35:44.356Z,5.20
2023-01-30T16:38:36.282Z,5.70
2023-01-30T16:41:05.725Z,6.40
2023-01-30T16:43:34.737Z,6.60
2023-01-30T16:46:37.351Z,5.40
2023-01-30T16:49:12.965Z,4.90
2023-01-30T16:51:41.582Z,5.40
2023-01-30T16:54:20.990Z,5.60
2023-01-30T16:56:54.090Z,5.50
2023-01-30T16:59:29.191Z,7.00
2023-01-30T17:01:59.600Z,7.20
2023-01-30T17:04:31.284Z,7.60
2023-01-30T17:07:03.378Z,7.10
2023-01-30T17:09:46.348Z,8.70
2023-01-30T17:12:49.108Z,7.80
2023-01-30T17:15:30.223Z,7.20
2023-01-30T17:17:59.707Z,5.90
2023-01-30T17:20:50.290Z,5.00
2023-01-30T17:23:20.739Z,4.90
2023-01-30T17:25:50.755Z,7.30
2023-01-30T17:28:23.300Z,5.40
2023-01-30T17:30:51.923Z,5.50
2023-01-30T17:33:20.814Z,5.60
2023-01-30T17:35:49.340Z,6.70
2023-01-30T17:38:20.231Z,4.40
2023-01-30T17:40:49.212Z,4.80
2023-01-30T17:43:17.612Z,4.80
2023-01-30T17:45:47.476Z,4.80
2023-01-30T17:48:16.296Z,5.10
2023-01-30T17:50:44.515Z,5.40
2023-01-30T17:53:13.132Z,4.20
2023-01-30T17:55:42.343Z,4.80
2023-01-30T17:58:16.329Z,5.20
2023-01-30T18:00:45.335Z,5.10
2023-01-30T18:03:14.582Z,6.10
2023-01-30T18:05:42.910Z,5.80
2023-01-30T18:08:13.171Z,5.50
2023-01-30T18:10:43.755Z,5.70
2023-01-30T18:13:12.202Z,5.00
2023-01-30T18:15:40.958Z,5.10
2023-01-30T18:18:15.253Z,5.70
2023-01-30T18:20:43.609Z,5.90
2023-01-30T18:23:11.893Z,6.80
2023-01-30T18:25:40.253Z,5.40
2023-01-30T18:28:10.455Z,5.80
2023-01-30T18:30:38.863Z,4.70
2023-01-30T18:33:07.297Z,5.10
2023-01-30T18:35:37.814Z,5.60
2023-01-30T18:38:06.072Z,5.40
2023-01-30T18:40:36.915Z,4.80
2023-01-30T18:43:05.239Z,4.90
2023-01-30T18:45:33.985Z,4.60
2023-01-30T18:48:02.602Z,4.30
2023-01-30T18:50:30.996Z,4.10
2023-01-30T18:52:59.362Z,5.70
2023-01-30T18:55:27.787Z,3.60
2023-01-30T18:57:57.670Z,3.80
2023-01-30T19:00:26.177Z,3.30
2023-01-30T19:02:54.871Z,3.50
2023-01-30T19:05:23.559Z,3.70
2023-01-30T19:07:52.386Z,3.50
2023-01-30T19:10:21.611Z,3.50
2023-01-30T19:13:08.851Z,5.10
2023-01-30T19:15:37.539Z,4.80
2023-01-30T19:18:06.384Z,3.90
2023-01-30T19:20:36.249Z,3.70
2023-01-30T19:23:04.803Z,3.40
2023-01-30T19:25:33.314Z,4.00
2023-01-30T19:28:01.719Z,3.70
2023-01-30T19:30:31.139Z,4.50
2023-01-30T19:32:59.861Z,4.00
2023-01-30T19:35:28.383Z,3.90
2023-01-30T19:37:59.449Z,3.40
2023-01-30T19:40:28.504Z,3.70
2023-01-30T19:43:09.305Z,3.80
2023-01-30T19:45:40.425Z,3.30
2023-01-30T19:48:10.801Z,3.80
2023-01-30T19:50:39.317Z,3.30
2023-01-30T19:53:08.368Z,2.60
2023-01-30T19:55:37.339Z,2.60
2023-01-30T19:58:05.917Z,3.10
2023-01-30T20:00:34.464Z,2.80
2023-01-30T20:03:03.062Z,2.40
2023-01-30T20:05:32.695Z,2.40
2023-01-30T20:08:02.122Z,2.80
2023-01-30T20:10:30.725Z,2.70
2023-01-30T20:12:59.547Z,2.70
2023-01-30T20:15:28.730Z,2.70
2023-01-30T20:17:57.174Z,2.80
2023-01-30T20:20:26.701Z,3.40
2023-01-30T20:22:55.555Z,3.60
2023-01-30T20:25:24.208Z,4.40
2023-01-30T20:27:53.121Z,3.60
2023-01-30T20:30:22.391Z,3.90
2023-01-30T20:32:54.863Z,4.30
2023-01-30T20:35:23.538Z,3.20
2023-01-30T20:37:52.738Z,4.20
2023-01-30T20:40:21.629Z,5.00
2023-01-30T20:42:50.731Z,3.70
2023-01-30T20:45:19.301Z,3.50
2023-01-30T20:47:48.183Z,4.20
2023-01-30T20:50:18.184Z,3.80
2023-01-30T20:52:50.721Z,3.90
2023-01-30T20:55:19.576Z,4.10
2023-01-30T20:57:48.122Z,4.20
2023-01-30T21:00:19.017Z,4.20
2023-01-30T21:02:51.845Z,3.60
2023-01-30T21:05:21.163Z,3.30
2023-01-30T21:07:49.970Z,5.40
2023-01-30T21:10:18.669Z,4.70
2023-01-30T21:12:46.965Z,3.30
2023-01-30T21:15:15.709Z,3.80
2023-01-30T21:17:44.158Z,3.80
2023-01-30T21:20:12.929Z,3.10
2023-01-30T21:22:41.340Z,3.20
2023-01-30T21:25:09.781Z,3.20
2023-01-30T21:27:40.558Z,3.60
2023-01-30T21:30:11.750Z,3.40
2023-01-30T21:32:40.423Z,2.90
2023-01-30T21:35:10.275Z,2.50
2023-01-30T21:38:08.374Z,2.80
2023-01-30T21:40:55.779Z,3.20
2023-01-30T21:43:28.117Z,4.40
2023-01-30T21:45:59.245Z,3.60
2023-01-30T21:48:27.859Z,3.50
2023-01-30T21:50:57.602Z,3.90
2023-01-30T21:53:27.265Z,3.10
2023-01-30T21:55:55.981Z,4.10
2023-01-30T21:58:24.412Z,3.80
2023-01-30T22:00:52.823Z,3.70
2023-01-30T22:03:26.925Z,4.10
2023-01-30T22:05:55.705Z,4.50
2023-01-30T22:08:24.461Z,4.30
2023-01-30T22:11:02.609Z,3.40
2023-01-30T22:13:32.065Z,5.20
2023-01-30T22:16:03.322Z,4.50
2023-01-30T22:18:33.444Z,4.50
2023-01-30T22:21:04.231Z,5.10
2023-01-30T22:23:34.916Z,4.00
2023-01-30T22:26:03.817Z,4.50
2023-01-30T22:28:34.554Z,3.60
2023-01-30T22:31:07.371Z,4.30
2023-01-30T22:36:07.208Z,4.10
2023-01-30T22:38:36.252Z,3.60
2023-01-30T22:41:06.686Z,4.70
2023-01-30T22:43:36.462Z,4.40
2023-01-30T22:46:06.859Z,5.10
2023-01-30T22:48:36.109Z,2.90
2023-01-30T22:51:06.246Z,3.20
2023-01-30T22:53:36.011Z,3.70
2023-01-30T22:56:06.374Z,5.30
2023-01-30T22:58:35.044Z,4.70
2023-01-30T23:01:16.654Z,3.10
2023-01-30T23:03:46.695Z,3.80
2023-01-30T23:06:16.531Z,4.50
2023-01-30T23:08:47.039Z,4.30
2023-01-30T23:11:17.397Z,2.70
2023-01-30T23:13:48.334Z,3.80
2023-01-30T23:16:19.887Z,3.30
2023-01-30T23:18:58.204Z,2.90
2023-01-30T23:21:28.502Z,3.30
2023-01-30T23:23:59.212Z,2.90
2023-01-30T23:26:31.065Z,3.20
2023-01-30T23:29:01.146Z,4.10
2023-01-30T23:31:30.183Z,3.30
2023-01-30T23:34:01.203Z,4.00
2023-01-30T23:36:30.916Z,3.50
2023-01-30T23:39:00.478Z,4.30
2023-01-30T23:41:31.298Z,4.60
2023-01-30T23:44:00.313Z,3.20
2023-01-30T23:46:31.078Z,3.30
2023-01-30T23:49:01.355Z,3.70
2023-01-30T23:51:32.065Z,3.70
2023-01-30T23:54:00.542Z,3.30
2023-01-30T23:56:31.533Z,2.90
2023-01-30T23:59:00.115Z,3.20
